createdAt,value
2019-03-27T00:00:38.788Z,88.67
2019-03-27T00:01:38.773Z,88.57
2019-03-27T00:02:38.775Z,88.40
2019-03-27T00:03:38.768Z,88.57
2019-03-27T00:04:38.747Z,88.36
2019-03-27T00:05:38.763Z,88.46
2019-03-27T00:06:38.714Z,88.26
2019-03-27T00:07:38.703Z,88.26
2019-03-27T00:08:38.717Z,88.36
2019-03-27T00:09:38.691Z,88.36
2019-03-27T00:10:38.678Z,88.46
2019-03-27T00:11:38.660Z,88.26
2019-03-27T00:12:38.648Z,87.64
2019-03-27T00:13:38.635Z,88.16
2019-03-27T00:14:38.663Z,88.26
2019-03-27T00:15:38.615Z,88.36
2019-03-27T00:16:38.603Z,88.26
2019-03-27T00:17:38.604Z,88.36
2019-03-27T00:18:38.583Z,88.26
2019-03-27T00:19:38.592Z,88.57
2019-03-27T00:20:38.559Z,88.57
2019-03-27T00:21:38.551Z,88.78
2019-03-27T00:22:38.555Z,88.67
2019-03-27T00:23:38.524Z,88.57
2019-03-27T00:24:38.511Z,88.36
2019-03-27T00:25:38.537Z,88.57
2019-03-27T00:26:38.493Z,88.78
2019-03-27T00:27:38.483Z,88.57
2019-03-27T00:28:38.489Z,88.78
2019-03-27T00:29:38.456Z,88.46
2019-03-27T00:30:38.451Z,88.78
2019-03-27T00:31:38.447Z,88.88
2019-03-27T00:32:38.423Z,88.88
2019-03-27T00:33:38.416Z,88.78
2019-03-27T00:34:38.423Z,89.09
2019-03-27T00:35:38.395Z,88.98
2019-03-27T00:36:38.385Z,89.40
2019-03-27T00:37:38.391Z,88.67
2019-03-27T00:38:38.355Z,89.19
2019-03-27T00:39:38.343Z,90.12
2019-03-27T00:40:38.347Z,90.12
2019-03-27T00:41:38.323Z,89.61
2019-03-27T00:42:38.384Z,89.34
2019-03-27T00:43:38.326Z,90.02
2019-03-27T00:44:38.287Z,90.16
2019-03-27T00:45:38.279Z,90.16
2019-03-27T00:46:38.283Z,90.06
2019-03-27T00:47:38.255Z,89.81
2019-03-27T00:48:38.243Z,89.40
2019-03-27T00:49:38.247Z,90.64
2019-03-27T00:50:38.219Z,89.81
2019-03-27T00:51:38.212Z,89.71
2019-03-27T00:52:38.216Z,89.50
2019-03-27T00:53:38.190Z,89.65
2019-03-27T00:54:38.175Z,90.23
2019-03-27T00:55:38.201Z,90.44
2019-03-27T00:56:38.234Z,90.44
2019-03-27T00:57:38.158Z,90.23
2019-03-27T00:58:38.145Z,90.23
2019-03-27T00:59:38.119Z,90.44
2019-03-27T01:00:38.107Z,90.33
2019-03-27T01:01:38.114Z,89.81
2019-03-27T01:02:38.090Z,89.71
2019-03-27T01:03:38.095Z,90.53
2019-03-27T01:04:38.063Z,90.44
2019-03-27T01:05:38.056Z,90.44
2019-03-27T01:06:38.044Z,90.44
2019-03-27T01:07:38.048Z,90.58
2019-03-27T01:08:38.018Z,91.09
2019-03-27T01:09:38.038Z,90.89
2019-03-27T01:10:37.996Z,90.99
2019-03-27T01:11:37.990Z,91.20
2019-03-27T01:12:37.974Z,90.89
2019-03-27T01:13:37.978Z,90.89
2019-03-27T01:14:37.951Z,90.95
2019-03-27T01:15:40.157Z,91.67
2019-03-27T01:16:37.930Z,91.82
2019-03-27T01:17:37.919Z,91.05
2019-03-27T01:18:37.906Z,91.16
2019-03-27T01:19:37.913Z,91.51
2019-03-27T01:20:37.899Z,91.82
2019-03-27T01:21:37.874Z,91.20
2019-03-27T01:22:37.863Z,91.41
2019-03-27T01:23:37.851Z,91.09
2019-03-27T01:24:37.839Z,91.20
2019-03-27T01:25:37.846Z,91.51
2019-03-27T01:26:37.835Z,91.82
2019-03-27T01:27:37.806Z,91.61
2019-03-27T01:28:37.798Z,91.93
2019-03-27T01:29:37.787Z,91.72
2019-03-27T01:30:37.775Z,91.72
2019-03-27T01:31:37.787Z,91.41
2019-03-27T01:32:37.763Z,91.51
2019-03-27T01:33:37.740Z,91.99
2019-03-27T01:34:37.726Z,92.44
2019-03-27T01:35:37.719Z,92.19
2019-03-27T01:36:37.713Z,92.03
2019-03-27T01:37:37.727Z,92.19
2019-03-27T01:38:37.683Z,92.13
2019-03-27T01:39:37.672Z,92.44
2019-03-27T01:40:37.678Z,91.93
2019-03-27T01:41:37.650Z,92.34
2019-03-27T01:42:37.639Z,92.34
2019-03-27T01:43:37.670Z,92.65
2019-03-27T01:44:37.614Z,92.34
2019-03-27T01:45:37.607Z,92.55
2019-03-27T01:46:37.594Z,92.76
2019-03-27T01:47:37.584Z,92.85
2019-03-27T01:48:37.578Z,92.65
2019-03-27T01:49:37.588Z,92.65
2019-03-27T01:50:37.555Z,92.24
2019-03-27T01:51:37.543Z,92.55
2019-03-27T01:52:37.527Z,92.55
2019-03-27T01:53:37.518Z,92.38
2019-03-27T01:54:37.525Z,92.49
2019-03-27T01:55:37.502Z,92.59
2019-03-27T01:56:37.494Z,93.10
2019-03-27T01:57:37.475Z,92.90
2019-03-27T01:58:37.459Z,93.21
2019-03-27T01:59:37.450Z,93.00
2019-03-27T02:00:37.438Z,93.21
2019-03-27T02:01:37.455Z,92.90
2019-03-27T02:02:37.414Z,92.94
2019-03-27T02:03:37.405Z,93.77
2019-03-27T02:04:37.390Z,93.41
2019-03-27T02:05:37.383Z,93.87
2019-03-27T02:06:37.374Z,93.56
2019-03-27T02:07:37.391Z,93.56
2019-03-27T02:08:37.346Z,93.87
2019-03-27T02:09:37.334Z,93.46
2019-03-27T02:10:37.327Z,94.39
2019-03-27T02:11:37.319Z,94.29
2019-03-27T02:12:37.314Z,94.08
2019-03-27T02:13:37.366Z,94.33
2019-03-27T02:14:37.299Z,94.33
2019-03-27T02:15:37.275Z,94.64
2019-03-27T02:16:37.260Z,94.29
2019-03-27T02:17:37.248Z,94.64
2019-03-27T02:18:37.234Z,94.43
2019-03-27T02:19:37.238Z,94.43
2019-03-27T02:20:37.231Z,94.85
2019-03-27T02:21:37.202Z,95.31
2019-03-27T02:22:37.190Z,95.00
2019-03-27T02:23:37.179Z,95.10
2019-03-27T02:24:37.171Z,95.41
2019-03-27T02:25:37.175Z,95.10
2019-03-27T02:26:37.162Z,95.62
2019-03-27T02:27:37.143Z,95.72
2019-03-27T02:28:37.123Z,95.31
2019-03-27T02:29:37.114Z,95.72
2019-03-27T02:30:37.112Z,95.31
2019-03-27T02:31:37.116Z,95.31
2019-03-27T02:32:37.114Z,95.62
2019-03-27T02:33:37.067Z,96.03
2019-03-27T02:34:37.057Z,96.24
2019-03-27T02:35:37.048Z,96.03
2019-03-27T02:36:37.036Z,96.82
2019-03-27T02:37:37.081Z,96.03
2019-03-27T02:38:37.011Z,96.24
2019-03-27T02:39:37.021Z,95.72
2019-03-27T02:40:36.991Z,96.03
2019-03-27T02:41:36.983Z,96.14
2019-03-27T02:42:36.967Z,96.03
2019-03-27T02:43:36.989Z,96.03
2019-03-27T02:44:36.944Z,95.89
2019-03-27T02:45:36.945Z,96.09
2019-03-27T02:46:36.936Z,96.09
2019-03-27T02:47:36.918Z,95.99
2019-03-27T02:48:36.911Z,95.99
2019-03-27T02:49:36.910Z,95.89
2019-03-27T02:50:36.879Z,95.68
2019-03-27T02:51:36.874Z,96.20
2019-03-27T02:52:36.859Z,95.68
2019-03-27T02:53:36.858Z,95.68
2019-03-27T02:54:36.831Z,95.78
2019-03-27T02:55:36.840Z,95.99
2019-03-27T02:56:36.815Z,95.89
2019-03-27T02:57:36.808Z,95.89
2019-03-27T02:58:36.787Z,96.15
2019-03-27T02:59:36.790Z,95.99
2019-03-27T03:00:36.782Z,96.20
2019-03-27T03:01:36.777Z,95.95
2019-03-27T03:02:36.748Z,96.98
2019-03-27T03:03:36.733Z,96.78
2019-03-27T03:04:36.743Z,96.88
2019-03-27T03:05:36.707Z,96.72
2019-03-27T03:06:36.700Z,96.36
2019-03-27T03:07:36.700Z,96.36
2019-03-27T03:08:36.698Z,96.57
2019-03-27T03:09:36.665Z,96.57
2019-03-27T03:10:36.654Z,96.36
2019-03-27T03:11:36.646Z,96.62
2019-03-27T03:12:36.635Z,96.36
2019-03-27T03:13:36.658Z,96.57
2019-03-27T03:14:36.623Z,96.67
2019-03-27T03:15:36.614Z,96.83
2019-03-27T03:16:42.630Z,96.57
2019-03-27T03:17:37.570Z,96.73
2019-03-27T03:18:36.585Z,96.78
2019-03-27T03:19:36.561Z,96.78
2019-03-27T03:20:36.565Z,96.98
2019-03-27T03:21:36.552Z,96.05
2019-03-27T03:22:36.520Z,96.57
2019-03-27T03:23:36.550Z,96.88
2019-03-27T03:24:36.501Z,96.67
2019-03-27T03:25:36.501Z,96.73
2019-03-27T03:26:36.478Z,96.62
2019-03-27T03:27:36.484Z,96.57
2019-03-27T03:28:36.455Z,96.42
2019-03-27T03:29:36.438Z,96.62
2019-03-27T03:30:36.453Z,96.73
2019-03-27T03:31:36.462Z,97.09
2019-03-27T03:32:36.413Z,96.73
2019-03-27T03:33:36.397Z,96.62
2019-03-27T03:34:36.400Z,96.83
2019-03-27T03:35:36.372Z,96.83
2019-03-27T03:36:36.362Z,97.04
2019-03-27T03:37:36.375Z,97.19
2019-03-27T03:38:36.351Z,96.73
2019-03-27T03:39:36.332Z,96.94
2019-03-27T03:40:36.317Z,96.73
2019-03-27T03:41:36.312Z,97.04
2019-03-27T03:42:36.306Z,96.83
2019-03-27T03:43:36.302Z,96.83
2019-03-27T03:44:36.347Z,96.73
2019-03-27T03:45:36.285Z,96.94
2019-03-27T03:46:36.255Z,97.14
2019-03-27T03:47:36.242Z,97.56
2019-03-27T03:48:36.233Z,97.45
2019-03-27T03:49:36.239Z,97.45
2019-03-27T03:50:36.205Z,97.35
2019-03-27T03:51:36.206Z,97.25
2019-03-27T03:52:36.185Z,97.45
2019-03-27T03:53:36.174Z,97.35
2019-03-27T03:54:36.160Z,97.35
2019-03-27T03:55:36.163Z,97.66
2019-03-27T03:56:36.145Z,97.14
2019-03-27T03:57:36.143Z,97.14
2019-03-27T03:58:36.116Z,97.04
2019-03-27T03:59:36.113Z,97.35
2019-03-27T04:00:36.094Z,97.25
2019-03-27T04:01:36.106Z,97.29
2019-03-27T04:02:36.075Z,97.60
2019-03-27T04:03:36.152Z,97.09
2019-03-27T04:04:36.049Z,96.94
2019-03-27T04:05:36.093Z,97.39
2019-03-27T04:06:36.055Z,97.56
2019-03-27T04:07:36.036Z,97.60
2019-03-27T04:08:36.016Z,97.09
2019-03-27T04:09:36.002Z,97.25
2019-03-27T04:10:36.011Z,97.19
2019-03-27T04:11:36.006Z,97.60
2019-03-27T04:12:35.959Z,97.50
2019-03-27T04:13:35.978Z,97.50
2019-03-27T04:14:35.935Z,97.50
2019-03-27T04:15:35.927Z,98.02
2019-03-27T04:16:35.941Z,97.45
2019-03-27T04:17:35.903Z,98.12
2019-03-27T04:18:35.897Z,98.43
2019-03-27T04:19:35.894Z,98.64
2019-03-27T04:20:35.885Z,98.43
2019-03-27T04:21:35.881Z,98.08
2019-03-27T04:22:35.847Z,98.02
2019-03-27T04:23:35.854Z,98.12
2019-03-27T04:24:35.830Z,97.71
2019-03-27T04:26:00.464Z,97.81
2019-03-27T04:26:36.801Z,97.71
2019-03-27T04:27:35.798Z,98.49
2019-03-27T04:28:35.778Z,98.43
2019-03-27T04:29:35.767Z,98.22
2019-03-27T04:30:35.761Z,98.43
2019-03-27T04:31:35.776Z,98.43
2019-03-27T04:32:35.734Z,98.43
2019-03-27T04:33:35.722Z,98.33
2019-03-27T04:34:35.715Z,98.95
2019-03-27T04:35:35.714Z,98.95
2019-03-27T04:36:35.694Z,98.64
2019-03-27T04:37:35.715Z,98.60
2019-03-27T04:38:35.681Z,98.43
2019-03-27T04:39:35.654Z,98.60
2019-03-27T04:40:35.645Z,98.74
2019-03-27T04:41:35.640Z,98.64
2019-03-27T04:42:35.635Z,98.54
2019-03-27T04:43:35.646Z,98.54
2019-03-27T04:44:35.620Z,98.64
2019-03-27T04:45:35.593Z,98.95
2019-03-27T04:46:35.579Z,98.43
2019-03-27T04:47:35.574Z,98.54
2019-03-27T04:48:35.579Z,98.74
2019-03-27T04:49:35.562Z,99.22
2019-03-27T04:50:35.535Z,99.37
2019-03-27T04:51:35.522Z,99.16
2019-03-27T04:52:35.509Z,99.05
2019-03-27T04:53:35.508Z,99.05
2019-03-27T04:54:35.518Z,99.37
2019-03-27T04:55:35.482Z,99.05
2019-03-27T04:56:35.465Z,99.16
2019-03-27T04:57:35.453Z,99.01
2019-03-27T04:58:35.446Z,98.85
2019-03-27T04:59:35.430Z,99.05
2019-03-27T05:00:35.481Z,98.91
2019-03-27T05:01:35.410Z,98.95
2019-03-27T05:02:35.400Z,98.95
2019-03-27T05:03:35.401Z,99.37
2019-03-27T05:04:35.379Z,99.43
2019-03-27T05:05:35.371Z,99.05
2019-03-27T05:06:35.402Z,99.05
2019-03-27T05:07:35.341Z,99.16
2019-03-27T05:08:35.329Z,99.16
2019-03-27T05:09:35.318Z,99.01
2019-03-27T05:10:35.309Z,98.95
2019-03-27T05:11:35.298Z,99.01
2019-03-27T05:12:38.505Z,99.73
2019-03-27T05:13:35.274Z,99.78
2019-03-27T05:14:35.274Z,99.11
2019-03-27T05:15:35.257Z,99.16
2019-03-27T05:16:35.246Z,98.85
2019-03-27T05:17:45.105Z,99.78
2019-03-27T05:18:36.265Z,99.32
2019-03-27T05:19:35.206Z,99.22
2019-03-27T05:20:35.198Z,99.68
2019-03-27T05:21:35.186Z,99.57
2019-03-27T05:22:35.191Z,99.37
2019-03-27T05:23:35.161Z,99.37
2019-03-27T05:24:35.163Z,99.47
2019-03-27T05:25:35.156Z,99.57
2019-03-27T05:26:35.133Z,99.47
2019-03-27T05:27:36.506Z,99.47
2019-03-27T05:28:35.130Z,99.78
2019-03-27T05:29:35.102Z,99.88
2019-03-27T05:30:35.104Z,99.99
2019-03-27T05:31:35.073Z,99.99
2019-03-27T05:32:35.070Z,99.99
2019-03-27T05:33:35.054Z,99.99
2019-03-27T05:34:35.054Z,99.88
2019-03-27T05:35:35.038Z,99.99
2019-03-27T05:36:35.033Z,99.99
2019-03-27T05:37:35.006Z,99.99
2019-03-27T05:38:34.993Z,99.99
2019-03-27T05:39:34.986Z,99.99
2019-03-27T05:40:34.985Z,99.99
2019-03-27T05:41:34.967Z,99.99
2019-03-27T05:42:34.965Z,99.99
2019-03-27T05:43:34.939Z,99.99
2019-03-27T05:44:34.928Z,99.99
2019-03-27T05:45:34.928Z,99.99
2019-03-27T05:46:34.919Z,99.99
2019-03-27T05:47:34.895Z,99.99
2019-03-27T05:48:34.896Z,99.99
2019-03-27T05:49:34.870Z,99.99
2019-03-27T05:50:34.859Z,99.99
2019-03-27T05:51:34.871Z,99.99
2019-03-27T05:52:34.838Z,99.99
2019-03-27T05:53:34.826Z,99.99
2019-03-27T05:54:34.833Z,99.99
2019-03-27T05:55:34.805Z,99.99
2019-03-27T05:56:34.794Z,99.99
2019-03-27T05:57:34.795Z,99.99
2019-03-27T05:58:34.773Z,99.99
2019-03-27T05:59:34.768Z,99.99
2019-03-27T06:00:34.773Z,99.99
2019-03-27T06:01:34.735Z,99.99
2019-03-27T06:02:34.765Z,99.99
2019-03-27T06:03:34.713Z,99.99
2019-03-27T06:04:34.702Z,99.99
2019-03-27T06:05:34.691Z,99.99
2019-03-27T06:06:34.682Z,99.99
2019-03-27T06:07:34.683Z,99.99
2019-03-27T06:08:34.675Z,99.99
2019-03-27T06:09:34.645Z,99.99
2019-03-27T06:10:34.640Z,99.99
2019-03-27T06:11:34.625Z,99.99
2019-03-27T06:12:34.615Z,99.99
2019-03-27T06:13:34.629Z,99.99
2019-03-27T06:14:34.609Z,99.99
2019-03-27T06:15:34.582Z,99.99
2019-03-27T06:16:34.571Z,99.99
2019-03-27T06:17:34.564Z,99.99
2019-03-27T06:18:34.547Z,99.99
2019-03-27T06:19:34.565Z,99.99
2019-03-27T06:20:34.525Z,99.99
2019-03-27T06:21:34.528Z,99.99
2019-03-27T06:22:34.501Z,99.99
2019-03-27T06:23:34.490Z,99.99
2019-03-27T06:24:34.479Z,99.99
2019-03-27T06:25:34.492Z,99.99
2019-03-27T06:26:34.457Z,99.99
2019-03-27T06:27:34.462Z,99.99
2019-03-27T06:28:34.435Z,99.99
2019-03-27T06:29:34.425Z,99.99
2019-03-27T06:30:34.418Z,99.78
2019-03-27T06:31:34.418Z,99.16
2019-03-27T06:32:34.393Z,99.37
2019-03-27T06:33:34.399Z,99.63
2019-03-27T06:34:34.369Z,99.05
2019-03-27T06:35:34.357Z,98.85
2019-03-27T06:36:34.350Z,98.91
2019-03-27T06:37:34.339Z,98.49
2019-03-27T06:38:34.321Z,97.71
2019-03-27T06:39:34.321Z,97.87
2019-03-27T06:40:34.299Z,98.12
2019-03-27T06:41:34.290Z,98.33
2019-03-27T06:42:34.278Z,98.39
2019-03-27T06:43:34.286Z,97.45
2019-03-27T06:44:34.271Z,97.66
2019-03-27T06:45:34.243Z,96.78
2019-03-27T06:46:34.233Z,96.98
2019-03-27T06:47:34.221Z,97.09
2019-03-27T06:48:34.214Z,97.25
2019-03-27T06:49:34.213Z,97.25
2019-03-27T06:50:34.205Z,96.67
2019-03-27T06:51:39.829Z,95.18
2019-03-27T06:52:35.171Z,95.01
2019-03-27T06:53:34.158Z,95.53
2019-03-27T06:54:34.144Z,94.87
2019-03-27T06:55:34.150Z,94.91
2019-03-27T06:56:34.143Z,94.97
2019-03-27T06:57:34.113Z,93.93
2019-03-27T06:58:34.101Z,93.93
2019-03-27T06:59:34.088Z,94.08
2019-03-27T07:00:34.077Z,93.62
2019-03-27T07:01:34.075Z,93.73
2019-03-27T07:02:34.074Z,93.89
2019-03-27T07:03:34.046Z,93.27
2019-03-27T07:04:34.033Z,92.85
2019-03-27T07:05:34.025Z,92.76
2019-03-27T07:06:34.009Z,92.50
2019-03-27T07:07:34.015Z,92.61
2019-03-27T07:08:33.995Z,92.50
2019-03-27T07:09:33.978Z,92.81
2019-03-27T07:10:33.965Z,92.50
2019-03-27T07:11:33.953Z,91.94
2019-03-27T07:12:33.943Z,91.36
2019-03-27T07:13:33.971Z,92.71
2019-03-27T07:14:33.921Z,92.40
2019-03-27T07:15:35.674Z,91.36
2019-03-27T07:16:33.898Z,91.36
2019-03-27T07:17:33.885Z,91.61
2019-03-27T07:18:40.023Z,91.36
2019-03-27T07:19:34.887Z,91.99
2019-03-27T07:20:33.852Z,93.12
2019-03-27T07:21:33.842Z,92.40
2019-03-27T07:22:33.829Z,92.09
2019-03-27T07:23:33.818Z,92.30
2019-03-27T07:24:33.821Z,92.40
2019-03-27T07:25:33.823Z,92.36
2019-03-27T07:26:33.789Z,91.99
2019-03-27T07:27:33.779Z,90.95
2019-03-27T07:28:33.781Z,91.36
2019-03-27T07:29:33.752Z,91.11
2019-03-27T07:30:33.762Z,91.42
2019-03-27T07:31:33.737Z,91.53
2019-03-27T07:32:33.718Z,90.25
2019-03-27T07:33:33.708Z,90.39
2019-03-27T07:34:33.695Z,90.08
2019-03-27T07:35:33.684Z,90.56
2019-03-27T07:36:33.685Z,90.25
2019-03-27T07:37:33.677Z,90.66
2019-03-27T07:38:33.666Z,90.14
2019-03-27T07:39:33.637Z,89.42
2019-03-27T07:40:33.625Z,89.52
2019-03-27T07:41:33.622Z,89.73
2019-03-27T07:42:33.613Z,89.87
2019-03-27T07:43:33.613Z,89.87
2019-03-27T07:44:33.581Z,89.87
2019-03-27T07:45:33.587Z,89.15
2019-03-27T07:46:33.558Z,89.77
2019-03-27T07:47:33.549Z,90.29
2019-03-27T07:48:33.544Z,89.56
2019-03-27T07:49:33.543Z,89.52
2019-03-27T07:50:33.513Z,89.83
2019-03-27T07:51:33.518Z,89.73
2019-03-27T07:52:33.493Z,90.14
2019-03-27T07:53:33.481Z,89.94
2019-03-27T07:54:33.470Z,89.83
2019-03-27T07:55:33.467Z,90.25
2019-03-27T07:56:33.445Z,90.14
2019-03-27T07:57:33.445Z,90.04
2019-03-27T07:58:33.425Z,90.35
2019-03-27T07:59:33.414Z,90.35
2019-03-27T08:00:33.402Z,90.35
2019-03-27T08:01:33.405Z,89.83
2019-03-27T08:02:33.393Z,90.56
2019-03-27T08:03:33.369Z,90.25
2019-03-27T08:04:33.355Z,89.32
2019-03-27T08:05:33.343Z,89.28
2019-03-27T08:06:33.333Z,89.69
2019-03-27T08:07:33.405Z,89.17
2019-03-27T08:08:33.375Z,88.55
2019-03-27T08:09:33.302Z,87.99
2019-03-27T08:10:33.289Z,87.93
2019-03-27T08:11:33.308Z,88.24
2019-03-27T08:12:33.265Z,88.51
2019-03-27T08:13:33.259Z,88.82
2019-03-27T08:14:33.251Z,88.78
2019-03-27T08:15:33.233Z,88.68
2019-03-27T08:16:33.221Z,87.95
2019-03-27T08:17:33.214Z,86.61
2019-03-27T08:18:33.197Z,86.92
2019-03-27T08:19:33.219Z,86.82
2019-03-27T08:20:33.176Z,86.86
2019-03-27T08:21:33.165Z,86.71
2019-03-27T08:22:33.155Z,86.71
2019-03-27T08:23:33.141Z,87.02
2019-03-27T08:24:33.133Z,86.51
2019-03-27T08:25:33.152Z,85.99
2019-03-27T08:26:33.109Z,86.30
2019-03-27T08:27:33.095Z,85.75
2019-03-27T08:28:33.085Z,85.64
2019-03-27T08:29:33.073Z,85.33
2019-03-27T08:30:33.078Z,85.23
2019-03-27T08:31:33.073Z,85.27
2019-03-27T08:32:33.039Z,85.68
2019-03-27T08:33:33.029Z,86.92
2019-03-27T08:34:33.021Z,87.08
2019-03-27T08:35:33.008Z,86.88
2019-03-27T08:36:33.003Z,85.50
2019-03-27T08:37:33.001Z,85.09
2019-03-27T08:38:32.973Z,85.09
2019-03-27T08:39:32.961Z,84.67
2019-03-27T08:40:32.951Z,85.19
2019-03-27T08:41:32.959Z,83.95
2019-03-27T08:42:32.927Z,84.57
2019-03-27T08:43:32.929Z,83.71
2019-03-27T08:44:32.905Z,82.89
2019-03-27T08:45:32.893Z,82.71
2019-03-27T08:46:32.887Z,82.40
2019-03-27T08:47:32.888Z,82.30
2019-03-27T08:48:32.863Z,83.23
2019-03-27T08:49:32.865Z,83.09
2019-03-27T08:50:32.837Z,82.98
2019-03-27T08:51:32.825Z,83.61
2019-03-27T08:52:32.813Z,83.15
2019-03-27T08:53:32.817Z,83.05
2019-03-27T08:54:32.791Z,81.71
2019-03-27T08:55:32.791Z,81.92
2019-03-27T08:56:32.770Z,82.64
2019-03-27T08:57:32.758Z,83.42
2019-03-27T08:58:32.757Z,81.67
2019-03-27T08:59:32.785Z,80.09
2019-03-27T09:00:32.725Z,80.51
2019-03-27T09:01:32.728Z,80.47
2019-03-27T09:02:32.701Z,79.64
2019-03-27T09:03:32.705Z,79.03
2019-03-27T09:04:32.685Z,78.72
2019-03-27T09:05:32.666Z,78.86
2019-03-27T09:06:33.819Z,79.64
2019-03-27T09:07:32.657Z,78.82
2019-03-27T09:08:32.633Z,79.58
2019-03-27T09:09:32.637Z,79.99
2019-03-27T09:10:32.610Z,79.72
2019-03-27T09:11:32.599Z,80.19
2019-03-27T09:12:32.598Z,80.75
2019-03-27T09:13:32.597Z,80.85
2019-03-27T09:14:32.565Z,81.63
2019-03-27T09:15:32.568Z,81.05
2019-03-27T09:16:32.545Z,80.23
2019-03-27T09:17:32.535Z,80.54
2019-03-27T09:18:32.537Z,78.38
2019-03-27T09:19:36.026Z,79.06
2019-03-27T09:20:32.496Z,79.51
2019-03-27T09:21:32.499Z,78.34
2019-03-27T09:22:32.474Z,78.24
2019-03-27T09:23:32.465Z,78.44
2019-03-27T09:24:32.458Z,78.03
2019-03-27T09:25:32.457Z,79.23
2019-03-27T09:26:32.429Z,78.14
2019-03-27T09:27:32.419Z,78.65
2019-03-27T09:28:32.407Z,78.03
2019-03-27T09:29:32.405Z,78.38
2019-03-27T09:30:32.394Z,79.24
2019-03-27T09:31:44.168Z,80.02
2019-03-27T09:32:33.443Z,80.54
2019-03-27T09:33:32.355Z,78.55
2019-03-27T09:34:32.340Z,78.82
2019-03-27T09:35:32.331Z,76.04
2019-03-27T09:36:32.401Z,75.73
2019-03-27T09:37:32.322Z,75.22
2019-03-27T09:38:32.301Z,76.25
2019-03-27T09:39:32.285Z,76.04
2019-03-27T09:40:32.271Z,76.62
2019-03-27T09:41:32.261Z,77.24
2019-03-27T09:42:32.271Z,75.80
2019-03-27T09:43:32.247Z,76.62
2019-03-27T09:44:32.286Z,75.97
2019-03-27T09:45:32.216Z,74.95
2019-03-27T09:46:32.205Z,75.04
2019-03-27T09:47:34.639Z,75.87
2019-03-27T09:48:32.182Z,74.74
2019-03-27T09:49:32.188Z,75.15
2019-03-27T09:50:32.160Z,76.18
2019-03-27T09:51:32.153Z,76.55
2019-03-27T09:52:32.137Z,75.67
2019-03-27T09:53:32.147Z,76.04
2019-03-27T09:54:32.112Z,76.00
2019-03-27T09:55:32.121Z,73.98
2019-03-27T09:56:32.094Z,73.95
2019-03-27T09:57:32.079Z,75.29
2019-03-27T09:58:32.070Z,76.21
2019-03-27T09:59:32.095Z,75.49
2019-03-27T10:00:32.045Z,74.67
2019-03-27T10:01:32.045Z,75.70
2019-03-27T10:02:32.045Z,71.96
2019-03-27T10:03:32.012Z,73.09
2019-03-27T10:04:32.013Z,72.27
2019-03-27T10:05:31.991Z,73.68
2019-03-27T10:06:31.984Z,73.54
2019-03-27T10:07:32.004Z,72.20
2019-03-27T10:08:31.973Z,71.89
2019-03-27T10:09:31.950Z,73.64
2019-03-27T10:10:31.932Z,72.89
2019-03-27T10:11:31.920Z,73.50
2019-03-27T10:12:31.912Z,72.58
2019-03-27T10:13:31.916Z,71.14
2019-03-27T10:14:31.912Z,72.03
2019-03-27T10:15:31.879Z,72.44
2019-03-27T10:16:31.873Z,72.20
2019-03-27T10:17:31.857Z,69.64
2019-03-27T10:18:31.864Z,68.27
2019-03-27T10:19:31.832Z,67.97
2019-03-27T10:20:31.828Z,67.38
2019-03-27T10:21:31.817Z,68.17
2019-03-27T10:22:31.814Z,67.49
2019-03-27T10:23:31.792Z,68.30
2019-03-27T10:24:31.787Z,68.92
2019-03-27T10:25:31.776Z,68.30
2019-03-27T10:26:31.756Z,68.10
2019-03-27T10:27:31.746Z,67.97
2019-03-27T10:28:31.736Z,67.69
2019-03-27T10:29:31.727Z,66.49
2019-03-27T10:30:31.721Z,67.93
2019-03-27T10:31:31.699Z,68.13
2019-03-27T10:32:31.684Z,68.13
2019-03-27T10:33:31.672Z,67.44
2019-03-27T10:34:31.700Z,68.40
2019-03-27T10:35:31.652Z,69.53
2019-03-27T10:36:31.653Z,68.78
2019-03-27T10:37:31.651Z,68.48
2019-03-27T10:38:31.616Z,68.54
2019-03-27T10:39:31.604Z,67.83
2019-03-27T10:40:31.604Z,68.34
2019-03-27T10:41:31.583Z,69.47
2019-03-27T10:42:31.574Z,69.16
2019-03-27T10:43:33.090Z,69.88
2019-03-27T10:44:31.548Z,69.78
2019-03-27T10:45:31.552Z,70.18
2019-03-27T10:46:31.528Z,69.95
2019-03-27T10:47:31.518Z,69.64
2019-03-27T10:48:31.504Z,66.16
2019-03-27T10:49:34.258Z,65.64
2019-03-27T10:50:31.480Z,65.16
2019-03-27T10:51:31.474Z,65.23
2019-03-27T10:52:31.459Z,66.05
2019-03-27T10:53:31.449Z,65.50
2019-03-27T10:54:31.460Z,65.91
2019-03-27T10:55:34.377Z,67.58
2019-03-27T10:56:31.423Z,67.76
2019-03-27T10:57:31.403Z,68.27
2019-03-27T10:58:31.438Z,67.52
2019-03-27T10:59:31.384Z,64.64
2019-03-27T11:00:31.379Z,65.19
2019-03-27T11:01:31.360Z,65.26
2019-03-27T11:02:31.348Z,65.26
2019-03-27T11:03:31.336Z,64.95
2019-03-27T11:04:31.347Z,65.70
2019-03-27T11:05:31.332Z,67.62
2019-03-27T11:06:31.300Z,66.60
2019-03-27T11:07:31.295Z,66.19
2019-03-27T11:08:31.286Z,65.06
2019-03-27T11:09:31.268Z,65.74
2019-03-27T11:10:31.302Z,64.10
2019-03-27T11:11:31.256Z,64.41
2019-03-27T11:12:31.238Z,64.38
2019-03-27T11:13:34.289Z,63.79
2019-03-27T11:14:37.744Z,64.48
2019-03-27T11:15:32.204Z,63.64
2019-03-27T11:16:31.211Z,64.76
2019-03-27T11:17:31.183Z,63.20
2019-03-27T11:18:31.180Z,64.01
2019-03-27T11:19:33.553Z,63.65
2019-03-27T11:20:31.770Z,61.83
2019-03-27T11:21:31.134Z,63.68
2019-03-27T11:22:31.124Z,61.73
2019-03-27T11:23:31.121Z,62.07
2019-03-27T11:24:31.120Z,61.45
2019-03-27T11:25:33.160Z,62.30
2019-03-27T11:26:31.080Z,62.10
2019-03-27T11:27:31.069Z,63.22
2019-03-27T11:28:31.052Z,62.30
2019-03-27T11:29:31.044Z,63.46
2019-03-27T11:30:31.048Z,62.43
2019-03-27T11:31:31.016Z,62.43
2019-03-27T11:32:31.092Z,62.33
2019-03-27T11:33:31.003Z,63.32
2019-03-27T11:34:30.984Z,63.70
2019-03-27T11:35:30.978Z,62.58
2019-03-27T11:36:30.980Z,62.65
2019-03-27T11:37:30.949Z,62.21
2019-03-27T11:38:30.940Z,61.57
2019-03-27T11:39:30.941Z,60.75
2019-03-27T11:40:30.916Z,60.58
2019-03-27T11:41:30.904Z,60.24
2019-03-27T11:42:30.909Z,61.47
2019-03-27T11:43:30.892Z,60.35
2019-03-27T11:44:30.884Z,61.13
2019-03-27T11:45:30.864Z,58.89
2019-03-27T11:46:32.400Z,60.01
2019-03-27T11:47:30.850Z,59.01
2019-03-27T11:48:30.824Z,60.85
2019-03-27T11:49:30.812Z,60.11
2019-03-27T11:50:43.720Z,59.94
2019-03-27T11:51:31.792Z,60.24
2019-03-27T11:52:30.782Z,60.68
2019-03-27T11:53:30.784Z,60.37
2019-03-27T11:54:30.763Z,59.66
2019-03-27T11:55:30.744Z,60.06
2019-03-27T11:56:30.744Z,59.25
2019-03-27T11:57:30.735Z,59.83
2019-03-27T11:58:30.712Z,59.63
2019-03-27T11:59:30.724Z,60.01
2019-03-27T12:00:30.774Z,59.50
2019-03-27T12:01:40.550Z,59.39
2019-03-27T12:02:31.669Z,58.78
2019-03-27T12:03:30.656Z,58.78
2019-03-27T12:04:30.725Z,60.01
2019-03-27T12:05:30.643Z,59.22
2019-03-27T12:06:30.624Z,60.44
2019-03-27T12:07:30.608Z,60.24
2019-03-27T12:08:30.598Z,60.75
2019-03-27T12:09:30.596Z,60.11
2019-03-27T12:10:30.608Z,59.19
2019-03-27T12:11:30.564Z,59.01
2019-03-27T12:12:30.555Z,58.40
2019-03-27T12:13:30.544Z,56.69
2019-03-27T12:14:30.529Z,57.92
2019-03-27T12:15:30.538Z,58.45
2019-03-27T12:16:30.523Z,59.58
2019-03-27T12:17:30.562Z,59.17
2019-03-27T12:18:31.949Z,60.02
2019-03-27T12:19:30.475Z,60.42
2019-03-27T12:20:30.466Z,60.33
2019-03-27T12:21:30.464Z,59.92
2019-03-27T12:22:30.456Z,60.12
2019-03-27T12:23:30.428Z,59.20
2019-03-27T12:24:30.424Z,60.05
2019-03-27T12:25:30.405Z,61.04
2019-03-27T12:26:30.416Z,59.38
2019-03-27T12:27:30.438Z,59.27
2019-03-27T12:28:30.439Z,60.17
2019-03-27T12:29:30.359Z,58.94
2019-03-27T12:30:30.348Z,59.04
2019-03-27T12:31:30.336Z,59.83
2019-03-27T12:32:30.341Z,59.12
2019-03-27T12:33:30.328Z,60.75
2019-03-27T12:34:30.334Z,61.47
2019-03-27T12:35:30.288Z,59.04
2019-03-27T12:36:30.289Z,60.27
2019-03-27T12:37:30.272Z,60.58
2019-03-27T12:38:30.264Z,60.58
2019-03-27T12:39:30.298Z,60.47
2019-03-27T12:40:30.236Z,60.91
2019-03-27T12:41:32.923Z,60.99
2019-03-27T12:42:30.209Z,59.27
2019-03-27T12:43:30.212Z,59.58
2019-03-27T12:44:30.192Z,59.17
2019-03-27T12:45:30.259Z,59.17
2019-03-27T12:46:30.170Z,59.17
2019-03-27T12:47:30.157Z,59.68
2019-03-27T12:48:30.144Z,58.84
2019-03-27T12:49:30.152Z,58.33
2019-03-27T12:50:30.118Z,57.51
2019-03-27T12:51:30.113Z,58.81
2019-03-27T12:52:30.108Z,57.99